Time;durP1;ratioP1;P1;durP2;ratioP2;P2;SDS_P1;SDS_P2;PMS_P1;PMS_P2;Temp;Humidity;BMP_temperature;BMP_pressure;BME280_temperature;BME280_humidity;BME280_pressure;Samples;Min_cycle;Max_cycle;Signal;HPM_P1;HPM_P2
2023/04/17 00:03:30;;;;;;;16.83;15.07;;;;;;;11.26;83.52;100756.25;10412614;28;20118;-69
2023/04/17 00:08:33;;;;;;;16.25;14.65;;;;;;;11.25;83.77;100749.22;10415521;28;20060;-70
2023/04/17 00:13:35;;;;;;;17.50;15.70;;;;;;;11.25;83.65;100749.22;10418347;28;20457;-70
2023/04/17 00:18:36;;;;;;;16.17;14.68;;;;;;;11.23;83.68;100745.81;10418205;28;20503;-72
2023/04/17 00:23:38;;;;;;;18.17;16.02;;;;;;;11.21;83.49;100737.06;10419541;28;20448;-68
2023/04/17 00:28:40;;;;;;;17.83;16.00;;;;;;;11.17;83.74;100735.63;10424255;28;20468;-71
2023/04/17 00:33:41;;;;;;;19.48;16.83;;;;;;;11.20;83.21;100735.41;10426920;28;20044;-71
2023/04/17 00:38:42;;;;;;;19.85;17.75;;;;;;;11.19;83.08;100728.38;10426723;28;20064;-70
2023/04/17 00:43:44;;;;;;;19.02;17.08;;;;;;;11.24;82.71;100734.19;10438326;28;20088;-71
2023/04/17 00:48:45;;;;;;;18.48;16.58;;;;;;;11.11;83.68;100730.78;10473390;28;20053;-69
2023/04/17 00:53:47;;;;;;;20.30;18.30;;;;;;;11.14;83.53;100725.22;10457209;28;20052;-66
2023/04/17 00:58:49;;;;;;;18.48;16.63;;;;;;;11.12;83.51;100721.78;10423640;28;20491;-70
2023/04/17 01:03:52;;;;;;;19.23;17.20;;;;;;;11.13;83.49;100734.16;10415817;28;20447;-69
2023/04/17 01:08:53;;;;;;;19.88;17.77;;;;;;;11.07;83.82;100721.28;10413538;28;20142;-70
2023/04/17 01:13:55;;;;;;;19.90;17.90;;;;;;;11.09;83.67;100724.69;10413416;28;20123;-71
2023/04/17 01:18:56;;;;;;;19.65;17.65;;;;;;;11.07;83.46;100729.28;10414539;28;20109;-70
2023/04/17 01:24:04;;;;;;;18.88;17.02;;;;;;;11.03;83.85;100722.47;10412024;28;20053;-72
2023/04/17 01:29:07;;;;;;;19.13;17.10;;;;;;;11.05;83.90;100724.09;10408010;28;20059;-73
2023/04/17 01:34:08;;;;;;;19.50;17.35;;;;;;;11.07;83.56;100734.63;10412847;28;20044;-68
2023/04/17 01:39:10;;;;;;;20.42;18.15;;;;;;;11.03;83.59;100722.47;10414574;28;20136;-73
2023/04/17 01:44:12;;;;;;;19.05;17.25;;;;;;;10.99;83.86;100729.00;10413220;28;20638;-72
2023/04/17 01:49:14;;;;;;;20.58;18.58;;;;;;;10.90;83.89;100718.09;10412673;28;20097;-70
2023/04/17 01:54:15;;;;;;;19.02;17.13;;;;;;;10.98;84.19;100730.00;10412531;28;20048;-71
2023/04/17 01:59:16;;;;;;;22.02;19.70;;;;;;;10.99;83.84;100727.19;10410679;28;20052;-71
2023/04/17 02:04:18;;;;;;;20.83;18.10;;;;;;;11.01;83.56;100725.25;10413806;28;20056;-70
2023/04/17 02:09:19;;;;;;;21.05;18.77;;;;;;;11.06;83.17;100730.25;10408398;28;20492;-75
2023/04/17 02:14:21;;;;;;;20.42;18.27;;;;;;;10.98;83.80;100714.00;10409146;28;20049;-72
2023/04/17 02:19:22;;;;;;;21.05;18.85;;;;;;;10.96;83.59;100717.63;10406774;28;20057;-70
2023/04/17 02:24:23;;;;;;;20.70;18.60;;;;;;;10.96;83.82;100722.94;10408262;28;20080;-68
2023/04/17 02:29:25;;;;;;;21.40;19.20;;;;;;;10.99;83.46;100731.66;10406364;28;20048;-70
2023/04/17 02:34:26;;;;;;;22.80;20.50;;;;;;;10.96;83.28;100725.63;10406077;28;20136;-71
2023/04/17 02:39:28;;;;;;;23.95;21.45;;;;;;;10.95;83.92;100726.56;10405569;28;20126;-72
2023/04/17 02:44:29;;;;;;;23.20;20.92;;;;;;;10.98;83.31;100725.50;10403392;28;20049;-72
2023/04/17 02:49:31;;;;;;;21.85;19.75;;;;;;;11.01;83.11;100725.25;10405662;28;20052;-72
2023/04/17 02:54:32;;;;;;;22.77;20.58;;;;;;;11.01;83.03;100729.75;10406312;28;20045;-67
2023/04/17 02:59:34;;;;;;;22.55;19.55;;;;;;;11.03;82.84;100727.81;10405778;28;20327;-70
2023/04/17 03:04:37;;;;;;;21.25;18.90;;;;;;;11.02;83.10;100723.44;10405722;28;20334;-70
2023/04/17 03:09:41;;;;;;;22.60;20.30;;;;;;;10.96;82.98;100728.28;10396967;28;20061;-68
2023/04/17 03:14:43;;;;;;;21.35;19.27;;;;;;;10.92;82.91;100725.97;10404055;28;20114;-70
2023/04/17 03:19:44;;;;;;;21.83;19.60;;;;;;;10.86;83.02;100726.41;10408506;28;20130;-72
2023/04/17 03:24:46;;;;;;;22.02;19.73;;;;;;;10.76;82.91;100711.13;10405643;28;20052;-66
2023/04/17 03:29:47;;;;;;;21.67;19.35;;;;;;;10.83;82.84;100727.50;10404037;28;20254;-69
2023/04/17 03:34:49;;;;;;;22.02;19.60;;;;;;;10.80;82.42;100719.72;10406568;28;20121;-70
2023/04/17 03:39:51;;;;;;;21.80;19.63;;;;;;;10.75;82.67;100727.22;10404179;28;20079;-75
2023/04/17 03:44:52;;;;;;;24.98;21.02;;;;;;;10.69;82.87;100733.84;10405840;28;20072;-72
2023/04/17 03:49:54;;;;;;;22.73;20.33;;;;;;;10.56;83.55;100731.22;10415727;28;20482;-74
2023/04/17 03:54:55;;;;;;;20.38;18.35;;;;;;;10.54;83.57;100730.47;10412481;28;20479;-71
2023/04/17 03:59:57;;;;;;;20.75;18.73;;;;;;;10.47;83.36;100731.88;10413464;28;20810;-71
2023/04/17 04:04:58;;;;;;;20.52;18.58;;;;;;;10.48;83.41;100733.59;10419590;28;20060;-72
2023/04/17 04:10:00;;;;;;;21.83;19.52;;;;;;;10.38;83.80;100735.22;10420826;28;20073;-70
2023/04/17 04:15:02;;;;;;;22.60;20.30;;;;;;;10.35;83.82;100732.78;10430353;28;20108;-73
2023/04/17 04:20:07;;;;;;;21.85;19.55;;;;;;;10.35;83.63;100735.44;10425262;28;20145;-75
2023/04/17 04:25:08;;;;;;;22.25;19.75;;;;;;;10.30;83.97;100737.53;10472034;28;20091;-76
2023/04/17 04:30:11;;;;;;;21.63;19.48;;;;;;;10.19;84.25;100744.50;10442799;28;20123;-71
2023/04/17 04:35:13;;;;;;;23.02;20.75;;;;;;;10.17;84.10;100762.34;10412950;28;20060;-70
2023/04/17 04:40:14;;;;;;;23.10;20.80;;;;;;;10.14;84.60;100757.25;10411231;28;20503;-70
2023/04/17 04:45:16;;;;;;;22.02;19.73;;;;;;;10.16;84.17;100759.81;10417827;28;20349;-71
2023/04/17 04:50:18;;;;;;;22.38;20.08;;;;;;;10.17;84.22;100759.69;10433835;28;20552;-69
2023/04/17 04:55:20;;;;;;;22.02;19.73;;;;;;;10.16;84.11;100755.31;10425736;28;20057;-70
2023/04/17 05:00:22;;;;;;;22.02;19.83;;;;;;;10.20;84.13;100767.44;10408788;28;20059;-69
2023/04/17 05:05:24;;;;;;;22.02;19.75;;;;;;;10.20;84.52;100767.44;10412438;28;20057;-68
2023/04/17 05:10:27;;;;;;;23.58;21.05;;;;;;;10.19;84.59;100780.88;10388056;28;20296;-70
2023/04/17 05:15:28;;;;;;;21.40;19.30;;;;;;;10.17;84.53;100775.66;10391122;28;20555;-70
2023/04/17 05:20:30;;;;;;;22.85;20.60;;;;;;;10.26;84.38;100777.66;10384816;28;20045;-70
2023/04/17 05:25:32;;;;;;;22.45;20.05;;;;;;;10.27;84.47;100782.03;10386447;28;20359;-69
2023/04/17 05:30:34;;;;;;;21.38;19.27;;;;;;;10.37;84.41;100792.03;10389717;28;20152;-68
2023/04/17 05:35:35;;;;;;;21.48;19.20;;;;;;;10.47;84.05;100785.13;10389612;28;20068;-68
2023/04/17 05:40:37;;;;;;;22.98;20.58;;;;;;;10.49;84.47;100799.16;10386535;28;20167;-72
2023/04/17 05:45:40;;;;;;;21.88;19.42;;;;;;;10.54;84.11;100791.72;10384759;28;20057;-70
2023/04/17 05:50:42;;;;;;;21.73;17.85;;;;;;;10.68;83.86;100797.84;10384098;28;20139;-69
2023/04/17 05:55:43;;;;;;;21.13;18.77;;;;;;;10.78;82.84;100790.91;10383957;28;20053;-69
2023/04/17 06:00:45;;;;;;;22.42;20.00;;;;;;;10.82;82.74;100794.19;10388115;28;20059;-69
2023/04/17 06:05:47;;;;;;;21.73;19.63;;;;;;;10.86;82.65;100796.50;10390818;28;20061;-72
2023/04/17 06:10:50;;;;;;;20.83;18.58;;;;;;;10.93;82.41;100803.09;10392271;28;20077;-67
2023/04/17 06:15:52;;;;;;;17.50;15.80;;;;;;;11.03;81.99;100802.41;10388342;28;20049;-67
2023/04/17 06:20:54;;;;;;;19.20;17.33;;;;;;;11.10;81.49;100814.31;10386543;28;20466;-70
2023/04/17 06:25:56;;;;;;;17.80;15.82;;;;;;;11.18;81.22;100811.91;10380746;28;20058;-71
2023/04/17 06:30:57;;;;;;;18.48;16.58;;;;;;;11.23;80.80;100809.78;10383498;28;20064;-69
2023/04/17 06:35:59;;;;;;;19.67;16.80;;;;;;;11.25;80.76;100818.50;10380527;28;20557;-70
2023/04/17 06:41:00;;;;;;;18.23;16.33;;;;;;;11.28;80.98;100820.94;10391720;28;20411;-68
2023/04/17 06:46:02;;;;;;;20.48;18.30;;;;;;;11.24;80.67;100818.63;10392648;28;20928;-71
2023/04/17 06:51:03;;;;;;;18.70;16.80;;;;;;;11.29;80.59;100822.66;10392755;28;20205;-67
2023/04/17 06:56:05;;;;;;;18.90;16.98;;;;;;;11.35;80.45;100823.13;10386340;28;20060;-69
2023/04/17 07:01:06;;;;;;;20.40;18.23;;;;;;;11.43;80.18;100828.75;10394305;28;20064;-70
2023/04/17 07:06:08;;;;;;;18.98;15.82;;;;;;;11.57;80.07;100823.22;10389043;28;20052;-72
2023/04/17 07:11:12;;;;;;;20.77;16.88;;;;;;;11.72;79.22;100837.22;10390300;28;20056;-67
2023/04/17 07:16:15;;;;;;;18.00;16.20;;;;;;;11.85;78.86;100837.13;10392357;28;20176;-71
2023/04/17 07:21:16;;;;;;;18.73;17.00;;;;;;;11.91;78.22;100842.00;10390390;28;20925;-71
2023/04/17 07:26:18;;;;;;;17.67;15.98;;;;;;;11.93;77.86;100840.09;10390181;28;20059;-71
2023/04/17 07:31:20;;;;;;;17.55;15.82;;;;;;;11.96;78.25;100849.69;10396021;28;20728;-73
2023/04/17 07:36:23;;;;;;;18.38;16.58;;;;;;;11.95;77.75;100845.31;10398921;28;20162;-67
2023/04/17 07:41:24;;;;;;;17.70;15.98;;;;;;;11.94;77.57;100855.13;10411202;28;20049;-71
2023/04/17 07:46:25;;;;;;;17.95;16.17;;;;;;;11.83;77.86;100839.91;10424299;28;20128;-69
2023/04/17 07:51:28;;;;;;;20.40;18.38;;;;;;;11.93;77.96;100861.44;10416474;28;20268;-69
2023/04/17 07:56:30;;;;;;;18.17;16.45;;;;;;;11.91;77.54;100860.66;10418184;28;20071;-73
2023/04/17 08:01:32;;;;;;;18.45;16.30;;;;;;;11.89;77.43;100853.75;10435278;28;20060;-74
2023/04/17 08:06:34;;;;;;;19.05;17.17;;;;;;;11.90;78.09;100858.97;10443828;28;20044;-72
2023/04/17 08:11:37;;;;;;;19.02;17.23;;;;;;;11.95;78.24;100858.63;10432764;28;20069;-71
2023/04/17 08:16:56;;;;;;;18.98;16.90;;;;;;;11.93;78.12;100866.75;10403556;28;20514;-68
2023/04/17 08:22:03;;;;;;;18.33;16.45;;;;;;;12.05;77.72;100874.81;10392586;28;20076;-74
2023/04/17 08:27:06;;;;;;;18.48;16.50;;;;;;;12.05;77.17;100869.47;10386451;28;20073;-69
2023/04/17 08:32:08;;;;;;;18.05;15.93;;;;;;;12.04;77.04;100881.97;10395708;28;20053;-70
2023/04/17 08:37:15;;;;;;;17.10;15.45;;;;;;;11.94;77.22;100863.13;10398527;28;20162;-70
2023/04/17 08:42:17;;;;;;;16.92;15.32;;;;;;;12.02;77.13;100886.56;10393399;28;20132;-68
2023/04/17 08:47:19;;;;;;;17.75;15.88;;;;;;;11.96;77.19;100885.19;10388638;28;20057;-71
2023/04/17 08:52:21;;;;;;;15.07;13.32;;;;;;;11.92;77.60;100894.41;10392217;28;22881;-70
2023/04/17 08:57:22;;;;;;;11.02;9.98;;;;;;;11.82;76.33;100890.72;10388751;28;20673;-75
2023/04/17 09:02:24;;;;;;;10.63;8.75;;;;;;;11.82;76.81;100896.06;10387634;28;20180;-72
2023/04/17 09:07:31;;;;;;;9.75;8.80;;;;;;;11.94;76.14;100889.81;10390824;28;20569;-70
2023/04/17 09:12:33;;;;;;;;;;;;;;;12.07;75.25;100891.53;10388050;28;20056;-70
2023/04/17 09:17:36;;;;;;;9.23;8.25;;;;;;;12.50;74.57;100885.53;10390771;28;20126;-69
2023/04/17 09:22:39;;;;;;;7.90;7.20;;;;;;;12.93;73.03;100876.78;10387480;28;20041;-70
2023/04/17 09:27:41;;;;;;;9.70;8.05;;;;;;;13.50;71.03;100874.84;10387387;28;20136;-71
2023/04/17 09:32:42;;;;;;;7.72;7.03;;;;;;;14.09;68.32;100870.78;10388454;28;20049;-69
2023/04/17 09:37:52;;;;;;;8.65;7.80;;;;;;;14.66;64.52;100873.91;10390844;28;20045;-71
2023/04/17 09:42:59;;;;;;;9.95;8.73;;;;;;;14.84;64.15;100876.78;10397593;28;20053;-68
2023/04/17 09:48:11;;;;;;;9.02;8.13;;;;;;;15.16;62.00;100874.91;10418952;28;20045;-71
2023/04/17 09:53:15;;;;;;;9.55;8.73;;;;;;;14.98;63.57;100888.13;10410207;28;20073;-69
2023/04/17 09:58:17;;;;;;;;;;;;;;;14.40;63.33;100891.41;10394994;28;21822;-70
2023/04/17 10:03:19;;;;;;;10.15;9.15;;;;;;;14.18;62.48;100889.72;10391468;28;19925;-68
2023/04/17 10:08:23;;;;;;;10.82;9.90;;;;;;;14.23;63.75;100884.81;10390036;28;20119;-71
2023/04/17 10:13:26;;;;;;;9.68;8.77;;;;;;;14.10;61.37;100885.88;10388483;28;20052;-70
2023/04/17 10:18:28;;;;;;;7.50;6.80;;;;;;;13.83;63.10;100880.19;10390152;28;20045;-75
2023/04/17 10:23:32;;;;;;;8.32;7.28;;;;;;;13.49;62.80;100873.16;10391823;28;21258;-70
2023/04/17 10:28:48;;;;;;;7.57;6.72;;;;;;;13.66;62.69;100879.78;10386602;28;20152;-74
2023/04/17 10:33:51;;;;;;;9.18;6.07;;;;;;;13.71;62.30;100876.72;10390672;28;20112;-71
2023/04/17 10:39:11;;;;;;;4.80;4.32;;;;;;;13.50;61.29;100866.00;10385622;28;20199;-70
2023/04/17 10:44:13;;;;;;;3.92;2.63;;;;;;;13.54;60.01;100872.75;10393344;28;20044;-71
2023/04/17 10:49:15;;;;;;;2.22;2.03;;;;;;;13.52;58.92;100872.06;10395247;28;20139;-70
2023/04/17 10:54:16;;;;;;;7.20;3.03;;;;;;;13.73;60.77;100875.59;10393596;28;20760;-74
2023/04/17 10:59:19;;;;;;;6.13;4.40;;;;;;;14.02;59.17;100861.59;10389676;28;20493;-72
2023/04/17 11:04:32;;;;;;;5.53;5.03;;;;;;;14.69;58.04;100856.72;10388386;28;20226;-71
2023/04/17 11:09:35;;;;;;;5.30;4.80;;;;;;;15.16;57.71;100845.41;10391755;28;20055;-75
2023/04/17 11:14:39;;;;;;;5.32;4.82;;;;;;;15.21;55.97;100845.84;10398732;28;20056;-75
2023/04/17 11:19:41;;;;;;;5.60;4.00;;;;;;;15.18;55.90;100841.63;10393946;28;20056;-68
2023/04/17 11:24:42;;;;;;;2.58;2.38;;;;;;;14.87;54.11;100853.41;10391235;28;20057;-71
2023/04/17 11:29:44;;;;;;;2.25;1.50;;;;;;;14.43;55.02;100843.78;10426444;28;20064;-74
2023/04/17 11:34:45;;;;;;;2.42;2.00;;;;;;;14.23;55.60;100860.72;10423306;28;20060;-69
2023/04/17 11:39:48;;;;;;;2.28;2.03;;;;;;;13.98;55.09;100857.47;10386763;28;20053;-68
2023/04/17 11:44:49;;;;;;;2.08;1.80;;;;;;;13.87;54.59;100866.44;10388037;28;20578;-68
2023/04/17 11:49:51;;;;;;;2.55;2.33;;;;;;;13.75;54.41;100862.94;10388481;28;20052;-70
2023/04/17 11:54:56;;;;;;;2.92;2.25;;;;;;;13.71;55.11;100855.31;10385088;28;20467;-75
2023/04/17 11:59:58;;;;;;;2.55;2.35;;;;;;;13.88;55.15;100864.59;10385997;28;20049;-72
2023/04/17 12:05:16;;;;;;;2.53;2.33;;;;;;;13.90;55.95;100870.66;10396414;28;20554;-68
2023/04/17 12:10:18;;;;;;;2.60;2.40;;;;;;;13.93;56.02;100862.34;10395781;28;20491;-72
2023/04/17 12:15:20;;;;;;;3.95;2.67;;;;;;;13.93;55.43;100865.91;10396545;28;20045;-69
2023/04/17 12:20:21;;;;;;;3.67;2.20;;;;;;;13.84;54.62;100860.47;10393812;28;20283;-75
2023/04/17 12:25:26;;;;;;;4.00;2.92;;;;;;;13.82;55.10;100863.28;10388042;28;20048;-72
2023/04/17 12:30:28;;;;;;;3.20;2.90;;;;;;;13.89;54.91;100866.28;10393304;28;20668;-74
2023/04/17 12:35:29;;;;;;;3.00;2.80;;;;;;;13.97;55.10;100861.97;10394104;28;20053;-70
2023/04/17 12:40:31;;;;;;;3.92;3.10;;;;;;;14.05;54.38;100868.50;10391705;28;20059;-72
2023/04/17 12:45:33;;;;;;;9.13;4.35;;;;;;;14.14;54.32;100867.69;10392697;28;20081;-70
2023/04/17 12:50:41;;;;;;;3.78;3.03;;;;;;;14.25;53.26;100864.13;10395035;28;20073;-69
2023/04/17 12:55:42;;;;;;;4.20;2.97;;;;;;;14.49;52.74;100864.66;10394411;28;20540;-70
2023/04/17 13:00:44;;;;;;;4.07;3.38;;;;;;;14.74;53.44;100854.50;10392222;28;20052;-68
2023/04/17 13:05:47;;;;;;;4.43;4.03;;;;;;;15.07;52.70;100857.81;10385766;28;20049;-75
2023/04/17 13:10:49;;;;;;;3.60;3.30;;;;;;;15.24;50.72;100850.06;10391845;28;20145;-71
2023/04/17 13:15:50;;;;;;;5.05;3.50;;;;;;;15.13;51.19;100851.06;10389100;28;20610;-68
2023/04/17 13:20:52;;;;;;;2.88;2.63;;;;;;;16.10;47.99;100847.53;10390491;28;20284;-69
2023/04/17 13:25:53;;;;;;;3.95;3.63;;;;;;;16.61;47.42;100843.53;10393405;28;20282;-70
2023/04/17 13:30:55;;;;;;;3.63;3.33;;;;;;;16.56;47.56;100840.44;10392269;28;20775;-71
2023/04/17 13:35:56;;;;;;;3.35;3.05;;;;;;;16.06;47.57;100825.50;10390465;28;21318;-68
2023/04/17 13:40:58;;;;;;;3.55;3.25;;;;;;;15.57;49.86;100835.44;10389526;28;20053;-73
2023/04/17 13:46:00;;;;;;;3.85;3.45;;;;;;;15.06;51.77;100837.38;10386461;28;20114;-70
2023/04/17 13:51:02;;;;;;;3.22;2.90;;;;;;;14.85;51.78;100830.25;10391488;28;20698;-71
2023/04/17 13:56:05;;;;;;;3.92;3.53;;;;;;;14.92;51.82;100835.06;10392527;28;20163;-72
2023/04/17 14:01:06;;;;;;;3.30;2.95;;;;;;;14.91;51.80;100828.03;10389810;28;20063;-74
2023/04/17 14:06:07;;;;;;;4.28;3.13;;;;;;;14.88;50.40;100829.16;10395482;28;20052;-69
2023/04/17 14:11:09;;;;;;;3.25;2.95;;;;;;;15.09;50.29;100815.63;10369623;28;20053;-70
2023/04/17 14:16:11;;;;;;;3.45;3.15;;;;;;;15.40;48.94;100812.81;10391511;28;20614;-71
2023/04/17 14:21:12;;;;;;;15.65;12.68;;;;;;;15.27;49.19;100817.66;10406377;28;20089;-74
2023/04/17 14:26:14;;;;;;;17.73;15.88;;;;;;;14.98;50.33;100813.94;10442856;28;20045;-74
2023/04/17 14:31:15;;;;;;;3.42;3.13;;;;;;;14.87;50.41;100815.88;10416714;28;20097;-73
2023/04/17 14:36:17;;;;;;;4.00;3.67;;;;;;;14.79;50.94;100812.06;10401332;28;20091;-70
2023/04/17 14:41:19;;;;;;;5.60;3.50;;;;;;;14.83;50.74;100804.56;10423056;28;20060;-71
2023/04/17 14:46:20;;;;;;;4.00;3.20;;;;;;;14.97;49.52;100795.31;10403372;28;20061;-69
2023/04/17 14:51:22;;;;;;;5.18;3.45;;;;;;;15.23;47.60;100792.09;10393680;28;20080;-69
2023/04/17 14:56:24;;;;;;;5.40;3.50;;;;;;;15.54;47.22;100790.94;10400319;28;20044;-72
2023/04/17 15:01:25;;;;;;;3.20;2.90;;;;;;;15.63;47.55;100781.19;10451692;28;20049;-69
2023/04/17 15:06:26;;;;;;;4.55;3.28;;;;;;;15.47;46.27;100779.06;10414340;28;20486;-68
2023/04/17 15:11:28;;;;;;;4.82;3.10;;;;;;;15.15;47.10;100774.84;10393784;28;20053;-70
2023/04/17 15:16:29;;;;;;;3.38;3.08;;;;;;;14.96;47.44;100785.56;10390288;28;20205;-72
2023/04/17 15:21:31;;;;;;;4.72;3.70;;;;;;;14.83;45.83;100777.78;10387569;28;20162;-71
2023/04/17 15:26:33;;;;;;;5.68;3.83;;;;;;;14.85;45.60;100778.50;10389178;28;20236;-70
2023/04/17 15:31:36;;;;;;;5.03;3.85;;;;;;;14.85;44.59;100779.34;10387980;28;20373;-69
2023/04/17 15:36:38;;;;;;;5.83;3.40;;;;;;;15.02;44.55;100767.06;10388524;28;20108;-70
2023/04/17 15:41:39;;;;;;;4.25;3.50;;;;;;;15.10;45.25;100769.09;10398038;28;20299;-71
2023/04/17 15:46:41;;;;;;;5.00;3.65;;;;;;;15.31;45.51;100770.75;10395711;28;20053;-70
2023/04/17 15:51:42;;;;;;;5.47;3.60;;;;;;;15.25;45.65;100761.44;10395780;28;20045;-71
2023/04/17 15:56:44;;;;;;;3.45;3.15;;;;;;;15.27;45.62;100769.38;10393760;28;20053;-68
2023/04/17 16:01:46;;;;;;;4.22;3.58;;;;;;;15.20;44.78;100759.19;10382886;28;20547;-70
2023/04/17 16:06:49;;;;;;;4.90;4.07;;;;;;;15.24;44.71;100772.31;10383183;28;20072;-68
2023/04/17 16:11:50;;;;;;;5.82;3.33;;;;;;;15.20;41.91;100763.72;10385327;28;20234;-73
2023/04/17 16:16:52;;;;;;;6.28;3.58;;;;;;;15.11;41.36;100760.03;10387051;28;20068;-71
2023/04/17 16:21:55;;;;;;;8.23;3.60;;;;;;;15.03;40.45;100762.59;10384988;28;20694;-72
2023/04/17 16:26:59;;;;;;;6.45;4.03;;;;;;;14.92;41.61;100770.75;10383560;28;20727;-73
2023/04/17 16:32:01;;;;;;;5.40;3.83;;;;;;;14.80;41.69;100773.56;10388321;28;20048;-68
2023/04/17 16:37:03;;;;;;;4.03;3.70;;;;;;;14.80;42.27;100772.69;10415062;28;20056;-69
2023/04/17 16:42:04;;;;;;;5.45;4.13;;;;;;;14.72;41.52;100770.72;10399373;28;20048;-71
2023/04/17 16:47:06;;;;;;;6.32;4.18;;;;;;;14.72;43.72;100776.06;10413304;28;20423;-71
2023/04/17 16:52:14;;;;;;;6.65;4.40;;;;;;;14.73;43.05;100764.38;10409080;28;20072;-68
2023/04/17 16:57:16;;;;;;;5.47;4.15;;;;;;;14.72;43.01;100764.50;10418066;28;20087;-71
2023/04/17 17:02:17;;;;;;;5.63;4.45;;;;;;;14.69;42.88;100776.34;10418281;28;20115;-69
2023/04/17 17:07:19;;;;;;;4.65;3.95;;;;;;;14.65;43.09;100778.47;10414739;28;20519;-67
2023/04/17 17:12:20;;;;;;;5.03;3.97;;;;;;;14.67;43.22;100779.16;10414778;28;20056;-69
2023/04/17 17:17:21;;;;;;;4.10;3.70;;;;;;;14.61;43.57;100778.88;10415389;28;20124;-71
2023/04/17 17:22:23;;;;;;;4.72;4.13;;;;;;;14.58;43.50;100784.47;10413444;28;20071;-72
2023/04/17 17:27:24;;;;;;;4.85;4.40;;;;;;;14.56;44.37;100783.75;10414561;28;21562;-70
2023/04/17 17:32:26;;;;;;;7.22;4.43;;;;;;;14.51;45.07;100784.16;10400910;28;20173;-67
2023/04/17 17:37:27;;;;;;;5.78;4.68;;;;;;;14.42;45.04;100783.13;10411477;28;20053;-68
2023/04/17 17:42:29;;;;;;;9.65;4.88;;;;;;;14.31;44.96;100780.56;10412930;28;20424;-71
2023/04/17 17:47:31;;;;;;;5.47;4.55;;;;;;;14.24;45.77;100777.56;10412225;28;20049;-65
2023/04/17 17:52:32;;;;;;;4.93;4.40;;;;;;;14.30;46.08;100797.63;10411893;28;20056;-68
2023/04/17 17:57:34;;;;;;;5.70;4.88;;;;;;;14.30;46.41;100790.41;10412258;28;20048;-70
2023/04/17 18:02:49;;;;;;;4.82;4.38;;;;;;;14.28;46.69;100803.09;10411623;28;20136;-70
2023/04/17 18:07:50;;;;;;;6.28;4.68;;;;;;;14.18;46.13;100794.19;10413361;28;20639;-69
2023/04/17 18:12:52;;;;;;;5.22;3.97;;;;;;;14.18;47.16;100802.22;10412998;28;20065;-69
2023/04/17 18:17:54;;;;;;;7.43;4.90;;;;;;;14.11;46.76;100806.38;10424911;28;20049;-71
2023/04/17 18:22:56;;;;;;;4.72;4.32;;;;;;;14.07;46.91;100805.00;10423997;28;20114;-70
2023/04/17 18:27:57;;;;;;;5.60;5.03;;;;;;;14.07;47.28;100810.34;10458120;28;20040;-71
2023/04/17 18:32:59;;;;;;;6.95;4.50;;;;;;;13.89;46.73;100784.19;10457749;28;20399;-67
2023/04/17 18:38:00;;;;;;;5.72;4.75;;;;;;;13.98;47.10;100814.66;10423038;28;20063;-72
2023/04/17 18:43:02;;;;;;;5.97;4.80;;;;;;;13.98;47.75;100817.31;10419961;28;20663;-72
2023/04/17 18:48:06;;;;;;;6.57;5.10;;;;;;;13.92;47.89;100825.88;10421098;28;20068;-72
2023/04/17 18:53:07;;;;;;;6.57;4.70;;;;;;;13.82;47.04;100830.31;10417506;28;20140;-72
2023/04/17 18:58:09;;;;;;;9.20;5.72;;;;;;;13.78;47.30;100841.28;10418747;28;20585;-72
2023/04/17 19:03:10;;;;;;;7.80;4.78;;;;;;;13.72;48.07;100833.78;10417906;28;20561;-69
2023/04/17 19:08:13;;;;;;;7.47;5.40;;;;;;;13.70;47.82;100835.72;10416973;28;20634;-72
2023/04/17 19:13:15;;;;;;;7.28;4.97;;;;;;;13.61;47.92;100832.00;10446894;28;20037;-71
2023/04/17 19:18:16;;;;;;;6.70;6.00;;;;;;;13.61;48.22;100841.84;10436490;28;20072;-67
2023/04/17 19:23:17;;;;;;;6.63;5.78;;;;;;;13.46;48.06;100835.97;10420380;28;20096;-71
2023/04/17 19:28:20;;;;;;;8.65;6.45;;;;;;;13.40;48.70;100844.50;10413820;28;20281;-68
2023/04/17 19:33:21;;;;;;;6.75;5.60;;;;;;;13.32;49.01;100839.75;10419650;28;20076;-70
2023/04/17 19:38:24;;;;;;;9.00;6.47;;;;;;;13.21;48.80;100832.63;10418895;28;20053;-70
2023/04/17 19:43:26;;;;;;;7.72;6.70;;;;;;;13.20;48.26;100838.94;10416964;28;20049;-67
2023/04/17 19:48:27;;;;;;;8.75;5.53;;;;;;;13.00;47.90;100813.00;10414788;28;20057;-69
2023/04/17 19:53:30;;;;;;;6.63;5.63;;;;;;;13.03;48.16;100845.69;10415927;28;20054;-68
2023/04/17 19:58:33;;;;;;;7.97;5.97;;;;;;;12.92;47.32;100837.66;10411957;28;20651;-68
2023/04/17 20:03:36;;;;;;;9.75;5.40;;;;;;;12.91;47.77;100852.03;10410362;28;20079;-70
2023/04/17 20:08:38;;;;;;;7.00;6.40;;;;;;;12.81;47.33;100841.22;10406743;28;20057;-70
2023/04/17 20:13:40;;;;;;;7.50;5.93;;;;;;;12.72;47.32;100853.50;10402503;28;20343;-68
2023/04/17 20:18:42;;;;;;;7.53;5.85;;;;;;;12.66;47.51;100843.28;10407718;28;20053;-69
2023/04/17 20:23:43;;;;;;;6.10;5.50;;;;;;;12.57;47.51;100841.38;10407325;28;20057;-69
2023/04/17 20:28:45;;;;;;;7.18;5.38;;;;;;;12.58;47.69;100851.09;10412666;28;20063;-67
2023/04/17 20:33:46;;;;;;;9.63;6.40;;;;;;;12.48;48.14;100853.63;10420027;28;20692;-68
2023/04/17 20:38:48;;;;;;;8.30;6.18;;;;;;;12.46;48.22;100852.03;10417463;28;20053;-70
2023/04/17 20:43:56;;;;;;;8.18;5.82;;;;;;;12.43;48.41;100847.81;10417844;28;20140;-67
2023/04/17 20:48:58;;;;;;;7.93;5.60;;;;;;;12.37;48.17;100845.63;10417611;28;20052;-70
2023/04/17 20:53:59;;;;;;;9.15;6.70;;;;;;;12.35;47.98;100840.38;10419054;28;20048;-69
2023/04/17 20:59:01;;;;;;;8.02;6.10;;;;;;;12.30;48.02;100852.41;10418970;28;20102;-71
2023/04/17 21:04:02;;;;;;;7.43;5.88;;;;;;;12.27;48.24;100840.16;10417522;28;20098;-69
2023/04/17 21:09:07;;;;;;;6.00;5.50;;;;;;;12.20;48.47;100844.25;10418855;28;20158;-70
2023/04/17 21:14:08;;;;;;;7.18;5.32;;;;;;;12.23;48.62;100840.50;10422447;28;20468;-70
2023/04/17 21:19:10;;;;;;;5.78;5.28;;;;;;;12.19;48.11;100840.75;10453745;28;20163;-70
2023/04/17 21:24:12;;;;;;;7.90;5.95;;;;;;;12.18;49.36;100840.88;10431391;28;20073;-69
2023/04/17 21:29:14;;;;;;;6.35;5.72;;;;;;;12.09;48.72;100833.59;10416447;28;20570;-67
2023/04/17 21:34:15;;;;;;;7.80;7.00;;;;;;;12.07;49.60;100844.38;10416132;28;20053;-66
2023/04/17 21:39:17;;;;;;;12.45;7.82;;;;;;;12.08;49.21;100850.56;10420327;28;20699;-67
2023/04/17 21:44:18;;;;;;;7.35;6.47;;;;;;;12.03;49.59;100842.91;10430994;28;20053;-69
2023/04/17 21:49:20;;;;;;;8.07;6.07;;;;;;;11.96;48.95;100849.69;10434887;28;20068;-67
2023/04/17 21:54:22;;;;;;;6.65;5.88;;;;;;;11.92;49.25;100840.16;10457309;28;20044;-71
2023/04/17 21:59:24;;;;;;;8.27;6.50;;;;;;;11.89;48.91;100849.28;10465389;28;20341;-67
2023/04/17 22:04:26;;;;;;;7.72;5.70;;;;;;;11.80;49.99;100842.81;10409161;28;20056;-68
2023/04/17 22:09:27;;;;;;;8.65;6.30;;;;;;;11.81;48.94;100844.53;10410991;28;20052;-68
2023/04/17 22:14:29;;;;;;;6.90;6.05;;;;;;;11.79;49.47;100838.44;10413918;28;20061;-67
2023/04/17 22:19:31;;;;;;;8.25;6.68;;;;;;;11.71;48.94;100834.66;10409639;28;20340;-70
2023/04/17 22:24:32;;;;;;;6.80;5.95;;;;;;;11.70;49.66;100843.66;10417897;28;20067;-72
2023/04/17 22:29:33;;;;;;;7.22;6.43;;;;;;;11.62;50.53;100842.41;10431430;28;20072;-70
2023/04/17 22:34:35;;;;;;;8.15;7.25;;;;;;;11.60;50.14;100841.66;10431856;28;20063;-69
2023/04/17 22:39:36;;;;;;;8.02;6.53;;;;;;;11.62;50.21;100837.06;10429153;28;20048;-66
2023/04/17 22:44:37;;;;;;;7.53;5.93;;;;;;;11.60;50.96;100839.00;10426214;28;20048;-67
2023/04/17 22:49:39;;;;;;;7.35;6.65;;;;;;;11.46;51.30;100844.53;10412113;28;20294;-65
2023/04/17 22:54:40;;;;;;;8.30;6.78;;;;;;;11.45;51.25;100840.16;10409633;28;20049;-67
2023/04/17 22:59:42;;;;;;;9.15;7.38;;;;;;;11.43;51.69;100836.75;10408862;28;20117;-70